Time;durP1;ratioP1;P1;durP2;ratioP2;P2;SDS_P1;SDS_P2;PMS_P1;PMS_P2;Temp;Humidity;BMP_temperature;BMP_pressure;BME280_temperature;BME280_humidity;BME280_pressure;Samples;Min_cycle;Max_cycle;Signal;HPM_P1;HPM_P2
2023/01/11 00:01:57;;;;;;;1.33;1.17;;;;;;;;;;5030768;28;20296;-70
2023/01/11 00:04:28;;;;;;;6.40;0.80;;;;;;;;;;5028879;28;20720;-69
2023/01/11 00:06:54;;;;;;;2.30;0.50;;;;;;;;;;5028293;28;20272;-70
2023/01/11 00:09:19;;;;;;;0.10;0.10;;;;;;;;;;5027260;28;20109;-69
2023/01/11 00:11:44;;;;;;;1.83;0.30;;;;;;;;;;5017506;28;20029;-68
2023/01/11 00:14:09;;;;;;;0.13;0.13;;;;;;;;;;5024768;28;20052;-70
2023/01/11 00:16:34;;;;;;;1.53;0.40;;;;;;;;;;5022363;28;20269;-68
2023/01/11 00:19:00;;;;;;;0.13;0.13;;;;;;;;;;5024289;28;20284;-70
2023/01/11 00:21:25;;;;;;;0.98;0.30;;;;;;;;;;5010326;28;20029;-68
2023/01/11 00:23:50;;;;;;;1.35;0.85;;;;;;;;;;5029514;28;20022;-69
2023/01/11 00:26:15;;;;;;;0.82;0.30;;;;;;;;;;5024331;28;20018;-69
2023/01/11 00:28:41;;;;;;;0.53;0.10;;;;;;;;;;5026454;28;20097;-69
2023/01/11 00:31:06;;;;;;;2.20;0.30;;;;;;;;;;5021307;28;20303;-69
2023/01/11 00:33:32;;;;;;;1.20;0.30;;;;;;;;;;5028391;28;20024;-68
2023/01/11 00:35:57;;;;;;;0.40;0.20;;;;;;;;;;5030611;28;20017;-69
2023/01/11 00:49:18;;;;;;;0.20;0.10;;;;;;;;;;4986309;28;20052;-70
2023/01/11 00:51:43;;;;;;;0.67;0.60;;;;;;;;;;4997896;28;20464;-70
2023/01/11 00:54:09;;;;;;;0.13;0.13;;;;;;;;;;4989751;28;20261;-69
2023/01/11 00:56:34;;;;;;;0.52;0.30;;;;;;;;;;4991724;28;20049;-69
2023/01/11 00:59:00;;;;;;;0.30;0.10;;;;;;;;;;4983310;28;20014;-69
2023/01/11 01:01:25;;;;;;;0.10;0.10;;;;;;;;;;4991204;28;20052;-70
2023/01/11 01:03:50;;;;;;;0.13;0.13;;;;;;;;;;4983755;28;20027;-69
2023/01/11 01:06:15;;;;;;;0.65;0.35;;;;;;;;;;4988981;28;20300;-69
2023/01/11 01:08:40;;;;;;;2.63;0.20;;;;;;;;;;4990442;28;20470;-69
2023/01/11 01:11:06;;;;;;;0.37;0.23;;;;;;;;;;4989415;28;20270;-69
2023/01/11 01:14:32;;;;;;;1.65;0.20;;;;;;;;;;4983793;28;20273;-69
2023/01/11 01:16:25;;;;;;;0.40;0.22;;;;;;;;;;4972675;28;20042;-69
2023/01/11 01:18:52;;;;;;;0.10;0.10;;;;;;;;;;4972100;28;20109;-69
2023/01/11 01:21:17;;;;;;;0.13;0.10;;;;;;;;;;4991228;28;20278;-69
2023/01/11 01:23:43;;;;;;;2.15;0.57;;;;;;;;;;4990531;28;20053;-69
2023/01/11 01:26:08;;;;;;;3.80;0.43;;;;;;;;;;4988055;28;20053;-69
2023/01/11 01:28:33;;;;;;;0.30;0.10;;;;;;;;;;4990546;28;20285;-68
2023/01/11 01:30:58;;;;;;;0.57;0.30;;;;;;;;;;4989405;28;20371;-68
2023/01/11 01:33:23;;;;;;;0.43;0.20;;;;;;;;;;4992009;28;20097;-68
2023/01/11 01:35:49;;;;;;;1.85;0.57;;;;;;;;;;4990613;28;20029;-70
2023/01/11 01:38:15;;;;;;;1.08;0.28;;;;;;;;;;4989918;28;20030;-69
2023/01/11 01:40:44;;;;;;;0.10;0.10;;;;;;;;;;4991116;28;20463;-70
2023/01/11 01:43:14;;;;;;;3.63;0.40;;;;;;;;;;4989385;28;20149;-69
2023/01/11 01:45:42;;;;;;;0.30;0.22;;;;;;;;;;4989811;28;20026;-70
2023/01/11 01:48:12;;;;;;;0.10;0.10;;;;;;;;;;4990541;28;20087;-70
2023/01/11 01:50:46;;;;;;;0.40;0.10;;;;;;;;;;4989054;28;20022;-69
2023/01/11 01:53:13;;;;;;;1.70;0.20;;;;;;;;;;4990340;28;20109;-69
2023/01/11 01:55:40;;;;;;;0.98;0.40;;;;;;;;;;4989062;28;20027;-69
2023/01/11 01:58:08;;;;;;;0.22;0.20;;;;;;;;;;4988759;28;20034;-69
2023/01/11 02:00:34;;;;;;;0.47;0.25;;;;;;;;;;4984992;28;20418;-70
2023/01/11 02:02:59;;;;;;;0.55;0.38;;;;;;;;;;4987928;28;20022;-69
2023/01/11 02:05:25;;;;;;;0.20;0.17;;;;;;;;;;4988991;28;20018;-69
2023/01/11 02:07:53;;;;;;;0.88;0.85;;;;;;;;;;4989278;28;20018;-69
2023/01/11 02:10:19;;;;;;;0.13;0.13;;;;;;;;;;4983266;28;20490;-70
2023/01/11 02:12:48;;;;;;;1.23;0.57;;;;;;;;;;4988503;28;20026;-69
2023/01/11 02:15:14;;;;;;;1.17;0.30;;;;;;;;;;4986778;28;20061;-70
2023/01/11 02:17:39;;;;;;;0.10;0.10;;;;;;;;;;4983760;28;20015;-70
2023/01/11 02:20:22;;;;;;;0.57;0.30;;;;;;;;;;4988716;28;20014;-70
2023/01/11 02:22:53;;;;;;;0.52;0.20;;;;;;;;;;4988331;28;20057;-70
2023/01/11 02:25:21;;;;;;;0.32;0.28;;;;;;;;;;4982922;28;20097;-70
2023/01/11 02:27:46;;;;;;;0.90;0.30;;;;;;;;;;4973316;28;20015;-70
2023/01/11 02:30:14;;;;;;;0.30;0.20;;;;;;;;;;4987028;28;20030;-70
2023/01/11 02:32:46;;;;;;;1.55;0.32;;;;;;;;;;4985916;28;20311;-70
2023/01/11 02:35:14;;;;;;;0.55;0.30;;;;;;;;;;4987721;28;20027;-69
2023/01/11 02:38:00;;;;;;;0.20;0.15;;;;;;;;;;4988876;28;20113;-69
2023/01/11 02:40:32;;;;;;;0.45;0.30;;;;;;;;;;4985360;28;20030;-68
2023/01/11 02:46:04;;;;;;;0.22;0.08;;;;;;;;;;4989121;28;20091;-69
2023/01/11 02:48:29;;;;;;;1.08;0.20;;;;;;;;;;4987393;28;20027;-69
2023/01/11 02:50:57;;;;;;;0.17;0.10;;;;;;;;;;4987718;28;20014;-70
2023/01/11 02:53:23;;;;;;;0.10;0.10;;;;;;;;;;4977983;28;20241;-70
2023/01/11 02:55:50;;;;;;;2.55;0.10;;;;;;;;;;4986880;28;20022;-69
2023/01/11 02:58:16;;;;;;;1.15;0.30;;;;;;;;;;4990021;28;20073;-70
2023/01/11 03:00:42;;;;;;;0.70;0.17;;;;;;;;;;4983268;28;20023;-69
2023/01/11 03:03:07;;;;;;;0.10;0.10;;;;;;;;;;4984071;28;20471;-69
2023/01/11 03:05:38;;;;;;;0.20;0.20;;;;;;;;;;4988433;28;20077;-69
2023/01/11 03:08:22;;;;;;;5.18;0.90;;;;;;;;;;4988901;28;20284;-70
2023/01/11 03:11:08;;;;;;;0.80;0.35;;;;;;;;;;4988897;28;20026;-70
2023/01/11 03:13:35;;;;;;;0.15;0.10;;;;;;;;;;4984083;28;20087;-68
2023/01/11 03:16:07;;;;;;;0.70;0.13;;;;;;;;;;4984203;28;20031;-69
2023/01/11 03:18:41;;;;;;;0.45;0.30;;;;;;;;;;4988053;28;20108;-69
2023/01/11 03:21:07;;;;;;;0.10;0.10;;;;;;;;;;4994954;28;20027;-70
2023/01/11 03:23:51;;;;;;;0.22;0.20;;;;;;;;;;4974324;28;20113;-70
2023/01/11 03:26:25;;;;;;;0.68;0.25;;;;;;;;;;4988861;28;20277;-69
2023/01/11 03:28:55;;;;;;;0.28;0.17;;;;;;;;;;4993674;28;20378;-69
2023/01/11 03:31:33;;;;;;;0.73;0.30;;;;;;;;;;4991516;28;20559;-70
2023/01/11 03:34:08;;;;;;;1.50;0.30;;;;;;;;;;4988025;28;20484;-69
2023/01/11 03:36:54;;;;;;;0.52;0.50;;;;;;;;;;4991863;28;20014;-70
2023/01/11 03:39:19;;;;;;;0.85;0.40;;;;;;;;;;4987245;28;20049;-70
2023/01/11 03:41:45;;;;;;;0.17;0.17;;;;;;;;;;4991071;28;20475;-70
2023/01/11 03:44:11;;;;;;;0.30;0.20;;;;;;;;;;4970536;28;20281;-69
2023/01/11 03:46:45;;;;;;;0.65;0.32;;;;;;;;;;4993359;28;20494;-69
2023/01/11 03:49:12;;;;;;;0.10;0.10;;;;;;;;;;4992896;28;20383;-69
2023/01/11 03:51:41;;;;;;;1.75;0.45;;;;;;;;;;4991238;28;20030;-69
2023/01/11 03:54:07;;;;;;;0.55;0.35;;;;;;;;;;4985543;28;20030;-69
2023/01/11 03:56:41;;;;;;;0.10;0.10;;;;;;;;;;4974298;28;20030;-68
2023/01/11 03:59:06;;;;;;;0.52;0.30;;;;;;;;;;4991107;28;20041;-68
2023/01/11 04:01:32;;;;;;;0.43;0.30;;;;;;;;;;4992676;28;20026;-69
2023/01/11 04:03:57;;;;;;;0.70;0.28;;;;;;;;;;4992266;28;20273;-69
2023/01/11 04:06:23;;;;;;;0.68;0.30;;;;;;;;;;4989323;28;20025;-69
2023/01/11 04:08:48;;;;;;;0.90;0.30;;;;;;;;;;4988092;28;20026;-69
2023/01/11 04:11:13;;;;;;;0.10;0.10;;;;;;;;;;4989251;28;20026;-70
2023/01/11 04:13:38;;;;;;;0.20;0.20;;;;;;;;;;4991910;28;20429;-71
2023/01/11 04:16:03;;;;;;;0.50;0.30;;;;;;;;;;4990829;28;20026;-70
2023/01/11 04:18:29;;;;;;;0.65;0.57;;;;;;;;;;4986565;28;20304;-71
2023/01/11 04:20:54;;;;;;;0.67;0.30;;;;;;;;;;4990944;28;20398;-71
2023/01/11 04:23:19;;;;;;;0.23;0.10;;;;;;;;;;4990740;28;20294;-70
2023/01/11 04:25:45;;;;;;;0.25;0.20;;;;;;;;;;4989753;28;20284;-71
2023/01/11 04:28:11;;;;;;;0.20;0.20;;;;;;;;;;4986019;28;20030;-70
2023/01/11 04:30:36;;;;;;;0.10;0.10;;;;;;;;;;4987006;28;20026;-69
2023/01/11 04:33:01;;;;;;;0.20;0.17;;;;;;;;;;4991771;28;20269;-72
2023/01/11 04:35:26;;;;;;;0.68;0.22;;;;;;;;;;4986680;28;20015;-70
2023/01/11 04:37:52;;;;;;;2.40;0.20;;;;;;;;;;4991612;28;20045;-70
2023/01/11 04:40:17;;;;;;;0.68;0.28;;;;;;;;;;4991701;28;20340;-70
2023/01/11 04:42:44;;;;;;;0.10;0.10;;;;;;;;;;4988951;28;20485;-70
2023/01/11 04:45:10;;;;;;;0.60;0.17;;;;;;;;;;4991014;28;20022;-70
2023/01/11 04:47:35;;;;;;;0.22;0.20;;;;;;;;;;4991863;28;20105;-71
2023/01/11 04:50:00;;;;;;;0.90;0.20;;;;;;;;;;4990638;28;20072;-70
2023/01/11 04:52:25;;;;;;;2.35;0.40;;;;;;;;;;4991056;28;20273;-70
2023/01/11 04:54:52;;;;;;;0.20;0.10;;;;;;;;;;4991000;28;20109;-70
2023/01/11 04:57:18;;;;;;;0.43;0.30;;;;;;;;;;4975109;28;20305;-70
2023/01/11 04:59:45;;;;;;;0.10;0.10;;;;;;;;;;4994732;28;20474;-70
2023/01/11 05:02:10;;;;;;;1.05;0.20;;;;;;;;;;4991319;28;20517;-70
2023/01/11 05:04:36;;;;;;;0.20;0.20;;;;;;;;;;4990796;28;20030;-71
2023/01/11 05:07:01;;;;;;;0.57;0.20;;;;;;;;;;4987596;28;20025;-71
2023/01/11 05:09:26;;;;;;;0.25;0.20;;;;;;;;;;4991851;28;20070;-70
2023/01/11 05:11:51;;;;;;;0.50;0.30;;;;;;;;;;4989769;28;20018;-71
2023/01/11 05:14:16;;;;;;;0.20;0.20;;;;;;;;;;4987069;28;20289;-71
2023/01/11 05:16:42;;;;;;;1.03;0.20;;;;;;;;;;4989821;28;20277;-71
2023/01/11 05:19:08;;;;;;;0.10;0.10;;;;;;;;;;4989171;28;20272;-71
2023/01/11 05:21:35;;;;;;;0.30;0.10;;;;;;;;;;4970935;28;20142;-71
2023/01/11 05:24:01;;;;;;;0.10;0.10;;;;;;;;;;4989319;28;20037;-71
2023/01/11 05:26:28;;;;;;;0.20;0.20;;;;;;;;;;4991132;28;20179;-71
2023/01/11 05:28:54;;;;;;;2.65;0.30;;;;;;;;;;4990044;28;20023;-71
2023/01/11 05:31:20;;;;;;;0.98;0.30;;;;;;;;;;4989490;28;20019;-71
2023/01/11 05:33:45;;;;;;;0.90;0.10;;;;;;;;;;4985875;28;20028;-71
2023/01/11 05:36:11;;;;;;;0.75;0.60;;;;;;;;;;4990833;28;20049;-70
2023/01/11 05:38:36;;;;;;;0.20;0.20;;;;;;;;;;4989784;28;20390;-70
2023/01/11 05:41:03;;;;;;;0.20;0.03;;;;;;;;;;4990550;28;20046;-70
2023/01/11 05:43:29;;;;;;;2.67;0.30;;;;;;;;;;4990410;28;20134;-71
2023/01/11 05:45:55;;;;;;;0.10;0.10;;;;;;;;;;4990994;28;20480;-70
2023/01/11 05:48:20;;;;;;;1.17;0.15;;;;;;;;;;4984126;28;20177;-70
2023/01/11 05:50:52;;;;;;;2.00;0.22;;;;;;;;;;4990143;28;20502;-70
2023/01/11 05:53:18;;;;;;;0.68;0.32;;;;;;;;;;4990487;28;20029;-70
2023/01/11 05:55:57;;;;;;;0.52;0.20;;;;;;;;;;4985915;28;20014;-70
2023/01/11 05:58:23;;;;;;;1.75;0.60;;;;;;;;;;4990288;28;20017;-71
2023/01/11 06:00:49;;;;;;;1.23;0.40;;;;;;;;;;4985688;28;20602;-70
2023/01/11 06:03:14;;;;;;;0.25;0.10;;;;;;;;;;4986385;28;20117;-70
2023/01/11 06:05:39;;;;;;;0.20;0.20;;;;;;;;;;4987128;28;20387;-70
2023/01/11 06:08:04;;;;;;;0.50;0.20;;;;;;;;;;4985026;28;20361;-70
2023/01/11 06:10:29;;;;;;;0.95;0.30;;;;;;;;;;4984282;28;20313;-70
2023/01/11 06:13:25;;;;;;;0.27;0.23;;;;;;;;;;4979546;28;20061;-70
2023/01/11 06:15:40;;;;;;;0.20;0.20;;;;;;;;;;4986167;28;20582;-70
2023/01/11 06:18:05;;;;;;;0.50;0.30;;;;;;;;;;4982989;28;20067;-70
2023/01/11 06:20:30;;;;;;;0.40;0.20;;;;;;;;;;4988113;28;20034;-70
2023/01/11 06:22:55;;;;;;;1.40;0.20;;;;;;;;;;4987537;28;20356;-70
2023/01/11 06:25:20;;;;;;;0.20;0.20;;;;;;;;;;4985140;28;20292;-69
2023/01/11 06:27:45;;;;;;;0.33;0.20;;;;;;;;;;4984990;28;20682;-71
2023/01/11 06:30:11;;;;;;;0.30;0.10;;;;;;;;;;4985315;28;20384;-72
2023/01/11 06:32:36;;;;;;;2.05;0.25;;;;;;;;;;4969870;28;20393;-71
2023/01/11 06:35:01;;;;;;;1.75;0.30;;;;;;;;;;4984021;28;20764;-70
2023/01/11 06:37:26;;;;;;;0.20;0.10;;;;;;;;;;4987499;28;20490;-70
2023/01/11 06:39:52;;;;;;;0.53;0.20;;;;;;;;;;4984326;28;20018;-70
2023/01/11 06:42:17;;;;;;;0.98;0.40;;;;;;;;;;4985427;28;20360;-69
2023/01/11 06:44:42;;;;;;;0.60;0.37;;;;;;;;;;4982297;28;20533;-70
2023/01/11 06:47:07;;;;;;;1.20;0.50;;;;;;;;;;5022033;23;20704;-69
2023/01/11 06:49:32;;;;;;;5.87;0.50;;;;;;;;;;5008604;28;20265;-69
2023/01/11 06:51:57;;;;;;;0.57;0.40;;;;;;;;;;5012602;28;20764;-69
2023/01/11 06:54:24;;;;;;;0.55;0.15;;;;;;;;;;5006142;28;20269;-69
2023/01/11 06:56:49;;;;;;;0.52;0.30;;;;;;;;;;5012899;28;20385;-69
2023/01/11 06:59:14;;;;;;;0.30;0.20;;;;;;;;;;5025428;28;20096;-69
2023/01/11 07:01:40;;;;;;;2.20;0.50;;;;;;;;;;5019535;28;20022;-69
2023/01/11 07:04:05;;;;;;;1.30;0.30;;;;;;;;;;5024841;28;20700;-69
2023/01/11 07:06:32;;;;;;;1.08;0.47;;;;;;;;;;5021735;28;20034;-69
2023/01/11 07:08:58;;;;;;;1.02;0.35;;;;;;;;;;5025046;28;20018;-69
2023/01/11 07:11:23;;;;;;;1.63;0.63;;;;;;;;;;5023208;28;20048;-70
2023/01/11 07:13:48;;;;;;;3.00;0.40;;;;;;;;;;5023908;28;20702;-69
2023/01/11 07:16:13;;;;;;;0.45;0.20;;;;;;;;;;5020225;28;20276;-71
2023/01/11 07:18:38;;;;;;;1.23;0.50;;;;;;;;;;5027380;28;20025;-70
2023/01/11 07:21:04;;;;;;;0.75;0.40;;;;;;;;;;5025467;28;20618;-70
2023/01/11 07:23:29;;;;;;;4.38;0.45;;;;;;;;;;5024710;28;20394;-69
2023/01/11 07:25:54;;;;;;;2.50;0.82;;;;;;;;;;5025770;28;20022;-71
2023/01/11 07:28:19;;;;;;;0.80;0.50;;;;;;;;;;5023432;28;20025;-68
2023/01/11 07:30:44;;;;;;;2.27;0.60;;;;;;;;;;5022795;28;20301;-70
2023/01/11 07:33:10;;;;;;;1.30;0.30;;;;;;;;;;5024482;28;20443;-69
2023/01/11 07:35:35;;;;;;;1.60;0.50;;;;;;;;;;5023271;28;20108;-69
2023/01/11 07:38:01;;;;;;;1.80;0.67;;;;;;;;;;5023892;28;20013;-70
2023/01/11 07:40:27;;;;;;;3.00;0.73;;;;;;;;;;5023432;28;20259;-69
2023/01/11 07:43:13;;;;;;;1.92;0.60;;;;;;;;;;5025707;28;20377;-69
2023/01/11 07:45:39;;;;;;;1.50;0.65;;;;;;;;;;5022211;28;20018;-69
2023/01/11 07:48:05;;;;;;;1.60;0.85;;;;;;;;;;5027487;28;20036;-69
2023/01/11 07:50:31;;;;;;;7.25;1.67;;;;;;;;;;5025776;28;20028;-70
2023/01/11 07:52:56;;;;;;;5.07;0.77;;;;;;;;;;5024550;28;20466;-69
2023/01/11 07:55:21;;;;;;;1.77;0.88;;;;;;;;;;5023563;28;20021;-69
2023/01/11 07:57:47;;;;;;;2.75;0.70;;;;;;;;;;5022767;28;20037;-69
2023/01/11 08:00:13;;;;;;;4.68;0.90;;;;;;;;;;5028007;28;20022;-69
2023/01/11 08:02:38;;;;;;;5.10;0.98;;;;;;;;;;5019306;28;20402;-69
2023/01/11 08:05:03;;;;;;;2.63;0.90;;;;;;;;;;5022751;28;20035;-70
2023/01/11 08:07:28;;;;;;;4.80;1.02;;;;;;;;;;5024359;28;20035;-70
2023/01/11 08:09:54;;;;;;;2.70;0.77;;;;;;;;;;5027888;28;20398;-70
2023/01/11 08:15:03;;;;;;;3.17;0.95;;;;;;;;;;5028386;28;20270;-70
2023/01/11 08:17:28;;;;;;;3.60;1.10;;;;;;;;;;5027991;28;20557;-69
2023/01/11 08:19:54;;;;;;;0.20;0.20;;;;;;;;;;5023556;28;20103;-69
2023/01/11 08:22:20;;;;;;;4.43;1.35;;;;;;;;;;5030892;28;20029;-70
2023/01/11 08:24:45;;;;;;;1.73;0.70;;;;;;;;;;5025904;28;20109;-69
2023/01/11 08:27:10;;;;;;;3.75;0.80;;;;;;;;;;5027634;28;20096;-71
2023/01/11 08:29:36;;;;;;;2.40;1.00;;;;;;;;;;5024981;28;20804;-69
2023/01/11 08:32:01;;;;;;;4.40;0.90;;;;;;;;;;5027220;28;20024;-69
2023/01/11 08:34:27;;;;;;;5.05;1.00;;;;;;;;;;5025703;28;20021;-70
2023/01/11 08:36:55;;;;;;;2.60;0.82;;;;;;;;;;5027457;28;20027;-70
2023/01/11 08:39:20;;;;;;;7.43;2.08;;;;;;;;;;5027463;28;20301;-69
2023/01/11 08:41:45;;;;;;;2.92;1.15;;;;;;;;;;5028568;28;20044;-70
2023/01/11 08:44:11;;;;;;;4.07;1.10;;;;;;;;;;5026532;28;20730;-69
2023/01/11 08:46:36;;;;;;;4.80;0.90;;;;;;;;;;5025230;28;20323;-69
2023/01/11 08:49:02;;;;;;;6.15;1.45;;;;;;;;;;5025880;28;20063;-69
2023/01/11 08:51:27;;;;;;;4.47;1.23;;;;;;;;;;5028251;28;20025;-70
2023/01/11 08:53:52;;;;;;;4.77;1.10;;;;;;;;;;5029966;28;20037;-69
2023/01/11 08:56:18;;;;;;;2.90;1.27;;;;;;;;;;5027726;28;20406;-70
2023/01/11 08:58:43;;;;;;;3.63;1.23;;;;;;;;;;5024488;28;20279;-69
2023/01/11 09:01:08;;;;;;;7.33;0.90;;;;;;;;;;5028297;28;20064;-69
2023/01/11 09:03:34;;;;;;;3.33;0.80;;;;;;;;;;5024948;28;21072;-69
2023/01/11 09:05:59;;;;;;;4.28;0.80;;;;;;;;;;5027000;28;20345;-69
2023/01/11 09:08:24;;;;;;;10.13;1.27;;;;;;;;;;5028865;28;20029;-69
2023/01/11 09:10:50;;;;;;;2.25;0.88;;;;;;;;;;5022750;28;20034;-69
2023/01/11 09:13:15;;;;;;;9.35;1.20;;;;;;;;;;5028699;28;20017;-69
2023/01/11 09:15:40;;;;;;;6.88;1.33;;;;;;;;;;5022346;28;20060;-69
2023/01/11 09:18:06;;;;;;;7.50;0.82;;;;;;;;;;5024558;28;20084;-69
2023/01/11 09:20:31;;;;;;;0.97;0.50;;;;;;;;;;5027899;28;20018;-70
2023/01/11 09:22:56;;;;;;;2.00;0.63;;;;;;;;;;5031569;28;20318;-69
2023/01/11 09:25:22;;;;;;;3.08;0.70;;;;;;;;;;5027363;28;20051;-71
2023/01/11 09:27:50;;;;;;;2.03;1.33;;;;;;;;;;5023438;28;20401;-70
2023/01/11 09:30:17;;;;;;;3.33;1.20;;;;;;;;;;5030485;28;20068;-70
2023/01/11 09:32:42;;;;;;;2.03;0.77;;;;;;;;;;5023344;28;20033;-69
2023/01/11 09:35:08;;;;;;;8.68;1.60;;;;;;;;;;5029895;28;20041;-69
2023/01/11 09:37:35;;;;;;;4.47;1.42;;;;;;;;;;5027794;28;20109;-70
2023/01/11 09:40:00;;;;;;;6.30;1.05;;;;;;;;;;5030141;28;20013;-70
2023/01/11 09:42:36;;;;;;;5.00;1.48;;;;;;;;;;5023076;28;20091;-70
2023/01/11 09:45:01;;;;;;;2.35;1.00;;;;;;;;;;5023345;28;20023;-69
2023/01/11 09:47:32;;;;;;;2.17;1.17;;;;;;;;;;5025554;28;20025;-70
2023/01/11 09:50:00;;;;;;;8.73;1.45;;;;;;;;;;5024148;28;20381;-70
2023/01/11 09:52:32;;;;;;;6.47;1.30;;;;;;;;;;5025570;28;20057;-71
2023/01/11 09:54:57;;;;;;;13.32;2.08;;;;;;;;;;5022916;28;20079;-69
2023/01/11 09:57:29;;;;;;;5.47;1.35;;;;;;;;;;5029274;28;20017;-69
2023/01/11 10:00:15;;;;;;;14.52;4.40;;;;;;;;;;5025910;28;20339;-69
2023/01/11 10:02:40;;;;;;;11.77;4.57;;;;;;;;;;4976967;28;20041;-71
2023/01/11 10:05:30;;;;;;;16.75;6.28;;;;;;;;;;5013250;28;20258;-71
2023/01/11 10:08:38;;;;;;;17.65;7.63;;;;;;;;;;5020392;28;20361;-70
2023/01/11 10:11:06;;;;;;;25.25;10.55;;;;;;;;;;4921562;29;20035;-70
2023/01/11 10:13:31;;;;;;;20.20;8.90;;;;;;;;;;4927888;29;20404;-69
2023/01/11 10:16:08;;;;;;;30.92;8.20;;;;;;;;;;4955782;28;20029;-69
2023/01/11 10:18:37;;;;;;;19.38;7.03;;;;;;;;;;5026286;28;20029;-69
2023/01/11 10:21:10;;;;;;;20.75;7.30;;;;;;;;;;5026813;28;20052;-69
2023/01/11 10:23:45;;;;;;;18.33;6.55;;;;;;;;;;5028589;28;20162;-69
2023/01/11 10:26:22;;;;;;;28.90;7.28;;;;;;;;;;5022221;28;20026;-69
2023/01/11 10:29:06;;;;;;;22.33;5.35;;;;;;;;;;5022730;28;20434;-69
2023/01/11 10:34:40;;;;;;;32.72;5.97;;;;;;;;;;5021127;28;20048;-69
2023/01/11 10:42:43;;;;;;;23.02;5.40;;;;;;;;;;5022119;28;20033;-69
2023/01/11 10:45:14;;;;;;;24.98;4.82;;;;;;;;;;5024924;28;20022;-69
2023/01/11 10:47:43;;;;;;;21.52;6.10;;;;;;;;;;5025557;28;20032;-69
2023/01/11 10:50:23;;;;;;;32.83;7.40;;;;;;;;;;5023502;28;20040;-69
2023/01/11 10:53:08;;;;;;;28.60;6.03;;;;;;;;;;5023638;28;20288;-69
2023/01/11 10:55:36;;;;;;;31.83;7.97;;;;;;;;;;4986059;28;20545;-69
2023/01/11 10:58:01;;;;;;;31.25;5.82;;;;;;;;;;5024027;28;20014;-69
2023/01/11 11:00:38;;;;;;;24.65;6.82;;;;;;;;;;5025989;28;20025;-69
2023/01/11 11:03:14;;;;;;;34.95;6.57;;;;;;;;;;5028525;28;20033;-69
2023/01/11 11:05:52;;;;;;;31.63;6.25;;;;;;;;;;5006433;28;20029;-70
2023/01/11 11:08:29;;;;;;;18.35;4.90;;;;;;;;;;5021323;28;20056;-69
2023/01/11 11:11:04;;;;;;;28.95;4.97;;;;;;;;;;5021391;28;20029;-69
2023/01/11 11:13:36;;;;;;;29.95;6.28;;;;;;;;;;5026150;28;20028;-69
2023/01/11 11:16:20;;;;;;;22.27;3.95;;;;;;;;;;5025156;28;20017;-69
2023/01/11 11:18:45;;;;;;;27.98;6.03;;;;;;;;;;5027798;28;20417;-69
2023/01/11 11:21:18;;;;;;;27.55;5.25;;;;;;;;;;5028496;28;20025;-69
2023/01/11 11:23:53;;;;;;;26.80;4.88;;;;;;;;;;5028811;28;20064;-70
2023/01/11 11:26:19;;;;;;;25.85;5.18;;;;;;;;;;5020117;28;20470;-69
2023/01/11 11:28:58;;;;;;;32.97;6.50;;;;;;;;;;5027323;28;20088;-69
2023/01/11 11:31:23;;;;;;;30.85;7.15;;;;;;;;;;5019216;28;20033;-70
2023/01/11 11:33:48;;;;;;;27.20;6.80;;;;;;;;;;5021646;28;20761;-69
2023/01/11 11:36:16;;;;;;;31.53;7.03;;;;;;;;;;5026001;28;20288;-69
2023/01/11 11:38:59;;;;;;;26.33;6.80;;;;;;;;;;5024036;28;20326;-72
2023/01/11 11:41:24;;;;;;;18.48;3.80;;;;;;;;;;5029984;28;20108;-69
2023/01/11 11:43:49;;;;;;;17.07;3.63;;;;;;;;;;5029638;28;20113;-69
2023/01/11 11:46:15;;;;;;;20.55;4.90;;;;;;;;;;5029454;28;20279;-69
2023/01/11 11:48:41;;;;;;;22.90;3.88;;;;;;;;;;5010491;28;20401;-69
2023/01/11 11:51:09;;;;;;;17.27;4.22;;;;;;;;;;5024201;28;20152;-70
2023/01/11 11:53:42;;;;;;;25.08;4.35;;;;;;;;;;5029669;28;20017;-70
2023/01/11 11:56:19;;;;;;;25.10;4.45;;;;;;;;;;5030934;28;20079;-70
2023/01/11 11:58:45;;;;;;;20.65;4.60;;;;;;;;;;5003928;28;20013;-70
2023/01/11 12:01:19;;;;;;;18.98;3.90;;;;;;;;;;5028920;28;20053;-69
2023/01/11 12:03:44;;;;;;;7.68;2.50;;;;;;;;;;5032308;28;20536;-69
2023/01/11 12:06:09;;;;;;;27.02;3.28;;;;;;;;;;5028281;28;20105;-69
2023/01/11 12:08:35;;;;;;;20.58;3.90;;;;;;;;;;5024318;28;20332;-69
2023/01/11 12:11:01;;;;;;;24.50;4.55;;;;;;;;;;5028268;28;20025;-69
2023/01/11 12:13:31;;;;;;;25.90;4.45;;;;;;;;;;5029268;28;20017;-69
2023/01/11 12:15:58;;;;;;;33.90;5.82;;;;;;;;;;5029880;28;20021;-69
2023/01/11 12:18:24;;;;;;;26.70;3.53;;;;;;;;;;5029086;28;20076;-69
2023/01/11 12:20:50;;;;;;;24.30;3.72;;;;;;;;;;5028674;28;20033;-69
2023/01/11 12:23:20;;;;;;;20.42;3.70;;;;;;;;;;5028387;28;20111;-69
2023/01/11 12:25:49;;;;;;;23.45;4.05;;;;;;;;;;5029589;28;20150;-69
2023/01/11 12:28:17;;;;;;;23.25;3.35;;;;;;;;;;5024276;28;20026;-69
2023/01/11 12:30:58;;;;;;;19.50;3.20;;;;;;;;;;5031441;28;20091;-69
2023/01/11 12:33:43;;;;;;;17.40;3.55;;;;;;;;;;5026892;28;20017;-69
2023/01/11 12:36:25;;;;;;;18.52;4.13;;;;;;;;;;5028445;28;20048;-69
2023/01/11 12:38:51;;;;;;;15.30;2.95;;;;;;;;;;5028210;28;20018;-69
2023/01/11 12:41:43;;;;;;;30.90;3.38;;;;;;;;;;5028536;28;20040;-69
2023/01/11 12:44:17;;;;;;;9.73;1.80;;;;;;;;;;5030704;28;20158;-69
2023/01/11 12:46:56;;;;;;;22.27;2.60;;;;;;;;;;5031972;23;20074;-70
2023/01/11 12:49:32;;;;;;;15.13;4.07;;;;;;;;;;4967335;28;20492;-70
2023/01/11 12:51:58;;;;;;;19.33;4.15;;;;;;;;;;4955026;28;20679;-70
2023/01/11 12:54:51;;;;;;;21.58;4.60;;;;;;;;;;4963403;28;20019;-70
2023/01/11 12:57:19;;;;;;;25.48;4.32;;;;;;;;;;4969456;28;20519;-70
2023/01/11 13:00:05;;;;;;;17.20;2.83;;;;;;;;;;4970541;28;20023;-71
2023/01/11 13:02:46;;;;;;;24.02;3.25;;;;;;;;;;4955043;28;20035;-70
2023/01/11 13:05:22;;;;;;;18.08;2.45;;;;;;;;;;4967022;28;20025;-70
2023/01/11 13:08:00;;;;;;;23.83;3.53;;;;;;;;;;4972290;28;20018;-70
2023/01/11 13:10:31;;;;;;;19.13;2.78;;;;;;;;;;4972206;28;20050;-69
2023/01/11 13:12:59;;;;;;;6.93;2.58;;;;;;;;;;4972648;28;20019;-70
2023/01/11 13:15:25;;;;;;;20.77;4.03;;;;;;;;;;4971211;28;20034;-70
2023/01/11 13:17:53;;;;;;;22.70;2.85;;;;;;;;;;4967897;28;20158;-70
2023/01/11 13:20:32;;;;;;;14.75;3.00;;;;;;;;;;4971601;28;20118;-70
2023/01/11 13:23:10;;;;;;;28.47;3.70;;;;;;;;;;4968578;28;20021;-70
2023/01/11 13:25:38;;;;;;;28.35;3.63;;;;;;;;;;4976972;28;20278;-70
2023/01/11 13:28:13;;;;;;;24.85;3.00;;;;;;;;;;4969144;28;20101;-70
2023/01/11 13:30:39;;;;;;;17.67;2.00;;;;;;;;;;4969724;28;20023;-70
2023/01/11 13:33:12;;;;;;;15.32;3.00;;;;;;;;;;4973724;28;20069;-70
2023/01/11 13:35:48;;;;;;;24.10;3.00;;;;;;;;;;4971528;28;20074;-69
2023/01/11 13:38:19;;;;;;;22.88;2.63;;;;;;;;;;4969173;28;20027;-69
2023/01/11 13:40:47;;;;;;;27.50;3.50;;;;;;;;;;4974503;28;20055;-70
2023/01/11 13:43:17;;;;;;;24.63;3.50;;;;;;;;;;4968940;28;20031;-69
2023/01/11 13:45:49;;;;;;;28.60;3.17;;;;;;;;;;4967169;28;20420;-69
2023/01/11 13:48:17;;;;;;;34.05;3.58;;;;;;;;;;4963583;28;20050;-69
2023/01/11 13:51:01;;;;;;;19.83;3.10;;;;;;;;;;4949864;28;20470;-69
2023/01/11 13:53:26;;;;;;;13.77;1.70;;;;;;;;;;4966596;28;20056;-69
2023/01/11 13:56:02;;;;;;;12.68;1.70;;;;;;;;;;4968195;28;20074;-68
2023/01/11 13:58:36;;;;;;;17.75;2.58;;;;;;;;;;4966878;28;20483;-69
2023/01/11 14:01:06;;;;;;;17.33;2.00;;;;;;;;;;4969315;28;20027;-68
2023/01/11 14:03:31;;;;;;;;;;;;;;;;;;4965822;28;20022;-68
2023/01/11 14:06:12;;;;;;;25.02;2.47;;;;;;;;;;4969671;28;19937;-69
2023/01/11 14:08:59;;;;;;;22.90;3.03;;;;;;;;;;4967517;28;20027;-68
2023/01/11 14:11:43;;;;;;;15.07;2.22;;;;;;;;;;4963427;28;20078;-69
2023/01/11 14:14:16;;;;;;;21.52;2.97;;;;;;;;;;4969166;28;20043;-69
2023/01/11 14:17:00;;;;;;;22.38;2.78;;;;;;;;;;4965696;28;20015;-69
2023/01/11 14:19:44;;;;;;;11.75;1.25;;;;;;;;;;4966875;28;20030;-70
2023/01/11 14:22:18;;;;;;;16.42;2.00;;;;;;;;;;4966374;28;20440;-71
2023/01/11 14:24:52;;;;;;;22.08;2.38;;;;;;;;;;4965149;28;20101;-70
2023/01/11 14:27:23;;;;;;;10.68;2.10;;;;;;;;;;4974624;28;20026;-69
2023/01/11 14:29:51;;;;;;;19.00;2.45;;;;;;;;;;4970403;28;20026;-69
2023/01/11 14:32:27;;;;;;;40.95;5.88;;;;;;;;;;4980514;28;20022;-69
2023/01/11 14:34:53;;;;;;;18.35;3.10;;;;;;;;;;4980681;28;20057;-68
2023/01/11 14:37:22;;;;;;;18.42;1.75;;;;;;;;;;4957078;28;20054;-69
2023/01/11 14:40:00;;;;;;;17.80;2.75;;;;;;;;;;4979275;28;20053;-69
2023/01/11 14:42:44;;;;;;;14.35;3.20;;;;;;;;;;4977337;28;20497;-70
2023/01/11 14:45:12;;;;;;;18.63;2.30;;;;;;;;;;4967957;28;20029;-69
2023/01/11 14:47:53;;;;;;;27.08;2.75;;;;;;;;;;4970726;28;20403;-70
2023/01/11 14:50:26;;;;;;;18.80;2.47;;;;;;;;;;4963716;28;20483;-69
2023/01/11 14:52:52;;;;;;;19.02;2.75;;;;;;;;;;4970969;28;20106;-69
2023/01/11 14:55:22;;;;;;;23.60;3.50;;;;;;;;;;4972541;28;20452;-68
2023/01/11 14:57:47;;;;;;;;;;;;;;;;;;4976495;28;20115;-69
2023/01/11 15:00:19;;;;;;;17.67;2.83;;;;;;;;;;4968250;28;19925;-69
2023/01/11 15:02:44;;;;;;;21.90;3.03;;;;;;;;;;4969531;28;20046;-68
2023/01/11 15:05:23;;;;;;;15.55;4.10;;;;;;;;;;4970330;28;20031;-68
2023/01/11 15:07:49;;;;;;;21.30;3.08;;;;;;;;;;4971864;28;20107;-68
2023/01/11 15:10:37;;;;;;;13.07;2.53;;;;;;;;;;4965644;28;20464;-69
2023/01/11 15:13:10;;;;;;;17.20;2.88;;;;;;;;;;4967398;28;20030;-71
2023/01/11 15:18:21;;;;;;;16.13;2.72;;;;;;;;;;4971098;28;20395;-69